createdAt,value
2018-10-21T00:00:36.611Z,39.00
2018-10-21T00:03:05.540Z,36.70
2018-10-21T00:05:33.911Z,37.70
2018-10-21T00:08:02.270Z,38.53
2018-10-21T00:10:30.703Z,36.07
2018-10-21T00:12:59.169Z,36.67
2018-10-21T00:15:27.627Z,39.17
2018-10-21T00:17:56.041Z,38.33
2018-10-21T00:20:24.493Z,37.57
2018-10-21T00:22:52.871Z,34.80
2018-10-21T00:25:21.217Z,38.60
2018-10-21T00:27:49.568Z,38.00
2018-10-21T00:30:17.938Z,37.70
2018-10-21T00:32:50.527Z,38.67
2018-10-21T00:35:18.917Z,35.43
2018-10-21T00:37:47.249Z,40.10
2018-10-21T00:40:15.605Z,37.23
2018-10-21T00:42:43.955Z,37.90
2018-10-21T00:45:12.380Z,37.97
2018-10-21T00:47:40.788Z,37.33
2018-10-21T00:50:10.307Z,36.93
2018-10-21T00:52:38.657Z,37.23
2018-10-21T00:55:08.064Z,37.10
2018-10-21T00:57:36.489Z,39.17
2018-10-21T01:00:06.999Z,40.77
2018-10-21T01:02:35.392Z,38.03
2018-10-21T01:05:03.855Z,37.10
2018-10-21T01:07:32.843Z,37.93
2018-10-21T01:10:01.269Z,39.00
2018-10-21T01:12:29.685Z,40.40
2018-10-21T01:14:58.087Z,39.50
2018-10-21T01:17:26.405Z,39.33
2018-10-21T01:19:54.815Z,37.77
2018-10-21T01:22:23.134Z,38.70
2018-10-21T01:24:51.491Z,38.50
2018-10-21T01:27:19.837Z,36.73
2018-10-21T01:29:48.419Z,36.87
2018-10-21T01:32:18.120Z,39.60
2018-10-21T01:34:46.807Z,39.07
2018-10-21T01:37:15.883Z,37.43
2018-10-21T01:40:52.480Z,37.60
2018-10-21T01:43:23.203Z,37.47
2018-10-21T01:45:51.557Z,40.40
2018-10-21T01:48:21.071Z,40.37
2018-10-21T01:50:49.411Z,37.80
2018-10-21T01:53:18.448Z,40.50
2018-10-21T01:55:46.907Z,39.93
2018-10-21T01:58:15.363Z,41.57
2018-10-21T02:00:43.972Z,39.60
2018-10-21T02:03:12.579Z,38.27
2018-10-21T02:05:41.688Z,38.67
2018-10-21T02:08:10.720Z,39.03
2018-10-21T02:10:39.077Z,38.90
2018-10-21T02:13:07.545Z,39.20
2018-10-21T02:15:35.941Z,39.33
2018-10-21T02:18:04.397Z,36.33
2018-10-21T02:20:32.808Z,36.73
2018-10-21T02:23:01.162Z,36.53
2018-10-21T02:25:29.507Z,38.20
2018-10-21T02:27:57.871Z,38.40
2018-10-21T02:30:30.481Z,39.10
2018-10-21T02:32:59.461Z,37.67
2018-10-21T02:35:27.779Z,38.70
2018-10-21T02:37:56.844Z,37.10
2018-10-21T02:41:42.591Z,36.67
2018-10-21T02:44:12.217Z,36.70
2018-10-21T02:46:41.030Z,38.50
2018-10-21T02:49:10.178Z,37.27
2018-10-21T02:51:38.516Z,43.00
2018-10-21T02:54:07.571Z,38.33
2018-10-21T02:56:35.914Z,38.47
2018-10-21T02:59:04.895Z,37.70
2018-10-21T03:01:33.305Z,38.57
2018-10-21T03:04:01.720Z,36.97
2018-10-21T03:06:30.124Z,38.40
2018-10-21T03:08:58.547Z,36.63
2018-10-21T03:11:26.947Z,38.93
2018-10-21T03:13:55.255Z,37.43
2018-10-21T03:16:23.598Z,38.03
2018-10-21T03:18:52.017Z,36.23
2018-10-21T03:21:20.617Z,34.40
2018-10-21T03:23:48.826Z,36.93
2018-10-21T03:26:17.188Z,37.60
2018-10-21T03:28:45.561Z,34.37
2018-10-21T03:31:13.954Z,33.33
2018-10-21T03:33:42.560Z,33.93
2018-10-21T03:36:10.845Z,36.27
2018-10-21T03:38:39.243Z,36.23
2018-10-21T03:41:07.639Z,33.23
2018-10-21T03:43:36.034Z,33.67
2018-10-21T03:46:04.544Z,35.33
2018-10-21T03:48:32.845Z,35.40
2018-10-21T03:51:01.239Z,33.70
2018-10-21T03:53:29.575Z,33.97
2018-10-21T03:55:57.955Z,34.53
2018-10-21T03:58:26.276Z,34.60
2018-10-21T04:00:54.593Z,33.30
2018-10-21T04:03:23.022Z,33.53
2018-10-21T04:05:51.407Z,32.77
2018-10-21T04:08:19.730Z,34.70
2018-10-21T04:10:48.132Z,32.70
2018-10-21T04:13:16.495Z,34.20
2018-10-21T04:15:44.886Z,35.50
2018-10-21T04:18:13.247Z,34.27
2018-10-21T04:20:41.662Z,33.93
2018-10-21T04:23:10.032Z,36.00
2018-10-21T04:25:39.269Z,32.53
2018-10-21T04:28:08.387Z,30.40
2018-10-21T04:30:37.881Z,30.77
2018-10-21T04:33:11.487Z,29.67
2018-10-21T04:35:39.989Z,29.90
2018-10-21T04:38:24.205Z,27.10
2018-10-21T04:40:52.697Z,27.90
2018-10-21T04:43:21.034Z,27.03
2018-10-21T04:45:49.633Z,26.50
2018-10-21T04:48:18.029Z,26.70
2018-10-21T04:50:46.606Z,28.00
2018-10-21T04:53:15.265Z,26.93
2018-10-21T04:55:43.856Z,27.80
2018-10-21T04:58:12.571Z,26.80
2018-10-21T05:00:40.778Z,29.47
2018-10-21T05:03:09.189Z,27.70
2018-10-21T05:05:37.539Z,28.53
2018-10-21T05:08:06.029Z,28.13
2018-10-21T05:10:38.525Z,27.80
2018-10-21T05:13:07.707Z,28.50
2018-10-21T05:15:38.121Z,27.60
2018-10-21T05:18:06.900Z,26.50
2018-10-21T05:20:36.373Z,29.77
2018-10-21T05:23:04.785Z,27.50
2018-10-21T05:25:33.295Z,28.83
2018-10-21T05:28:01.681Z,28.50
2018-10-21T05:30:30.048Z,25.27
2018-10-21T05:32:58.354Z,25.67
2018-10-21T05:35:26.689Z,26.50
2018-10-21T05:37:55.337Z,28.90
2018-10-21T05:40:23.921Z,26.90
2018-10-21T05:42:52.439Z,28.50
2018-10-21T05:45:20.780Z,29.67
2018-10-21T05:47:49.152Z,29.10
2018-10-21T05:50:17.984Z,28.17
2018-10-21T05:52:46.494Z,29.37
2018-10-21T05:55:15.726Z,25.40
2018-10-21T05:57:44.120Z,25.60
2018-10-21T06:00:18.982Z,26.60
2018-10-21T06:02:47.472Z,27.53
2018-10-21T06:05:43.577Z,26.07
2018-10-21T06:08:11.961Z,26.30
2018-10-21T06:10:40.736Z,26.13
2018-10-21T06:13:09.423Z,27.17
2018-10-21T06:15:37.806Z,27.83
2018-10-21T06:18:11.310Z,28.93
2018-10-21T06:20:42.322Z,28.13
2018-10-21T06:23:10.677Z,28.27
2018-10-21T06:25:39.033Z,26.83
2018-10-21T06:28:07.433Z,26.00
2018-10-21T06:30:35.936Z,25.50
2018-10-21T06:33:04.681Z,24.37
2018-10-21T06:35:33.019Z,25.00
2018-10-21T06:38:01.380Z,25.50
2018-10-21T06:40:29.829Z,24.60
2018-10-21T06:42:58.195Z,25.53
2018-10-21T06:45:27.016Z,24.80
2018-10-21T06:47:55.286Z,23.80
2018-10-21T06:50:24.795Z,23.63
2018-10-21T06:52:53.295Z,23.50
2018-10-21T06:55:21.715Z,23.90
2018-10-21T06:57:50.069Z,25.10
2018-10-21T07:00:18.829Z,22.67
2018-10-21T07:02:47.169Z,23.97
2018-10-21T07:05:26.790Z,23.70
2018-10-21T07:07:55.141Z,22.83
2018-10-21T07:10:23.438Z,22.57
2018-10-21T07:12:52.325Z,22.27
2018-10-21T07:15:21.093Z,23.67
2018-10-21T07:17:49.529Z,22.70
2018-10-21T07:20:17.991Z,23.37
2018-10-21T07:22:46.364Z,22.77
2018-10-21T07:25:14.797Z,21.63
2018-10-21T07:27:43.219Z,22.80
2018-10-21T07:30:12.745Z,22.73
2018-10-21T07:32:42.051Z,22.87
2018-10-21T07:35:12.549Z,21.63
2018-10-21T07:37:41.677Z,20.57
2018-10-21T07:40:10.674Z,25.17
2018-10-21T07:42:38.995Z,22.50
2018-10-21T07:45:07.376Z,21.97
2018-10-21T07:47:35.748Z,21.97
2018-10-21T07:50:04.091Z,22.80
2018-10-21T07:52:32.431Z,21.30
2018-10-21T07:55:00.842Z,23.67
2018-10-21T07:57:29.227Z,23.20
2018-10-21T07:59:57.580Z,23.03
2018-10-21T08:02:25.953Z,22.50
2018-10-21T08:04:54.422Z,23.83
2018-10-21T08:07:34.047Z,23.50
2018-10-21T08:10:02.487Z,25.07
2018-10-21T08:12:30.927Z,24.63
2018-10-21T08:14:59.295Z,25.47
2018-10-21T08:17:27.656Z,25.03
2018-10-21T08:19:56.037Z,25.50
2018-10-21T08:22:24.361Z,24.30
2018-10-21T08:24:52.779Z,25.20
2018-10-21T08:27:21.791Z,25.33
2018-10-21T08:29:50.149Z,22.43
2018-10-21T08:32:18.459Z,24.43
2018-10-21T08:34:46.979Z,24.20
2018-10-21T08:37:15.419Z,22.70
2018-10-21T08:39:43.787Z,20.63
2018-10-21T08:42:12.098Z,22.90
2018-10-21T08:44:40.434Z,22.93
2018-10-21T08:47:08.830Z,22.50
2018-10-21T08:49:37.348Z,22.40
2018-10-21T08:52:06.167Z,19.03
2018-10-21T08:54:34.515Z,19.50
2018-10-21T08:57:02.903Z,19.07
2018-10-21T08:59:31.355Z,20.67
2018-10-21T09:01:59.725Z,18.50
2018-10-21T09:04:28.272Z,18.97
2018-10-21T09:06:57.304Z,19.03
2018-10-21T09:09:25.713Z,17.70
2018-10-21T09:11:54.175Z,17.13
2018-10-21T09:14:22.614Z,15.10
2018-10-21T09:16:51.012Z,15.60
2018-10-21T09:19:19.647Z,16.20
2018-10-21T09:21:47.982Z,15.60
2018-10-21T09:24:16.366Z,14.20
2018-10-21T09:26:44.773Z,12.23
2018-10-21T09:29:13.164Z,13.70
2018-10-21T09:31:41.505Z,13.67
2018-10-21T09:34:09.972Z,12.07
2018-10-21T09:36:38.317Z,13.50
2018-10-21T09:39:10.763Z,13.97
2018-10-21T09:41:39.152Z,13.93
2018-10-21T09:44:08.367Z,11.20
2018-10-21T09:46:36.882Z,10.80
2018-10-21T09:49:05.882Z,11.07
2018-10-21T09:51:34.306Z,11.57
2018-10-21T09:54:02.702Z,12.30
2018-10-21T09:56:31.045Z,11.20
2018-10-21T09:58:59.435Z,11.00
2018-10-21T10:01:33.049Z,11.87
2018-10-21T10:04:01.524Z,13.03
2018-10-21T10:06:29.898Z,12.60
2018-10-21T10:08:58.277Z,11.17
2018-10-21T10:11:26.725Z,10.00
2018-10-21T10:13:55.109Z,11.13
2018-10-21T10:16:23.418Z,9.43
2018-10-21T10:18:51.823Z,9.60
2018-10-21T10:21:20.163Z,9.87
2018-10-21T10:23:48.617Z,8.93
2018-10-21T10:26:17.018Z,9.63
2018-10-21T10:28:45.423Z,8.27
2018-10-21T10:31:13.929Z,7.50
2018-10-21T10:33:42.197Z,6.93
2018-10-21T10:36:10.580Z,6.20
2018-10-21T10:38:38.951Z,5.13
2018-10-21T10:41:07.509Z,6.27
2018-10-21T10:43:35.841Z,7.53
2018-10-21T10:46:04.545Z,7.03
2018-10-21T10:48:32.995Z,7.13
2018-10-21T10:51:01.488Z,6.77
2018-10-21T10:53:30.195Z,7.70
2018-10-21T10:55:58.491Z,8.57
2018-10-21T10:58:26.882Z,8.40
2018-10-21T11:00:56.490Z,8.63
2018-10-21T11:03:24.834Z,9.00
2018-10-21T11:05:53.286Z,8.70
2018-10-21T11:08:21.705Z,8.23
2018-10-21T11:10:50.230Z,6.80
2018-10-21T11:13:18.713Z,6.83
2018-10-21T11:15:47.135Z,5.50
2018-10-21T11:18:15.450Z,3.80
2018-10-21T11:20:43.902Z,3.60
2018-10-21T11:23:12.357Z,3.60
2018-10-21T11:25:40.759Z,3.60
2018-10-21T11:28:09.202Z,3.90
2018-10-21T11:30:37.587Z,3.43
2018-10-21T11:33:06.566Z,3.90
2018-10-21T11:35:34.925Z,2.80
2018-10-21T11:38:03.377Z,2.80
2018-10-21T11:40:31.809Z,4.00
2018-10-21T11:43:00.279Z,4.20
2018-10-21T11:45:28.622Z,4.10
2018-10-21T11:47:57.067Z,3.97
2018-10-21T11:50:25.528Z,3.90
2018-10-21T11:52:53.917Z,3.73
2018-10-21T11:55:22.359Z,4.70
2018-10-21T11:57:50.717Z,4.33
2018-10-21T12:00:19.155Z,4.50
2018-10-21T12:02:48.253Z,3.90
2018-10-21T12:05:16.751Z,4.00
2018-10-21T12:07:45.113Z,3.40
2018-10-21T12:10:13.592Z,4.33
2018-10-21T12:12:42.049Z,4.03
2018-10-21T12:15:10.420Z,4.20
2018-10-21T12:17:38.826Z,4.07
2018-10-21T12:20:07.170Z,4.80
2018-10-21T12:22:35.527Z,4.37
2018-10-21T12:25:04.017Z,4.20
2018-10-21T12:27:32.339Z,3.67
2018-10-21T12:30:00.689Z,4.10
2018-10-21T12:32:29.078Z,4.23
2018-10-21T12:34:57.724Z,3.87
2018-10-21T12:37:26.109Z,4.97
2018-10-21T12:39:54.458Z,3.90
2018-10-21T12:42:22.762Z,3.83
2018-10-21T12:44:51.129Z,3.77
2018-10-21T12:47:19.572Z,5.50
2018-10-21T12:49:47.934Z,3.83
2018-10-21T12:52:16.401Z,3.13
2018-10-21T12:54:44.762Z,3.40
2018-10-21T12:57:13.097Z,3.90
2018-10-21T12:59:41.495Z,3.60
2018-10-21T13:02:09.903Z,3.37
2018-10-21T13:04:38.231Z,2.60
2018-10-21T13:07:06.786Z,3.43
2018-10-21T13:09:35.076Z,2.93
2018-10-21T13:12:03.473Z,2.90
2018-10-21T13:14:31.827Z,3.40
2018-10-21T13:17:00.141Z,3.40
2018-10-21T13:19:28.484Z,3.73
2018-10-21T13:21:56.912Z,3.77
2018-10-21T13:24:25.183Z,4.03
2018-10-21T13:26:53.660Z,3.00
2018-10-21T13:29:22.083Z,3.10
2018-10-21T13:31:50.593Z,3.63
2018-10-21T13:34:19.003Z,3.17
2018-10-21T13:36:47.328Z,3.40
2018-10-21T13:39:15.799Z,2.93
2018-10-21T13:41:45.161Z,2.83
2018-10-21T13:44:13.641Z,3.47
2018-10-21T13:46:42.520Z,3.50
2018-10-21T13:49:11.040Z,2.93
2018-10-21T13:51:39.632Z,3.10
2018-10-21T13:54:07.885Z,3.13
2018-10-21T13:56:36.273Z,3.10
2018-10-21T13:59:04.855Z,3.60
2018-10-21T14:01:33.293Z,3.20
2018-10-21T14:04:01.718Z,3.40
2018-10-21T14:06:30.091Z,3.90
2018-10-21T14:08:59.340Z,3.83
2018-10-21T14:11:27.752Z,3.93
2018-10-21T14:13:56.147Z,3.90
2018-10-21T14:16:24.648Z,4.10
2018-10-21T14:18:53.076Z,4.67
2018-10-21T14:21:21.451Z,4.07
2018-10-21T14:23:49.853Z,3.43
2018-10-21T14:26:18.226Z,3.57
2018-10-21T14:28:46.587Z,4.37
2018-10-21T14:31:14.977Z,4.00
2018-10-21T14:33:43.405Z,3.67
2018-10-21T14:36:11.885Z,3.73
2018-10-21T14:38:40.363Z,3.83
2018-10-21T14:41:08.705Z,3.53
2018-10-21T14:43:37.109Z,3.60
2018-10-21T14:46:06.290Z,3.70
2018-10-21T14:48:34.575Z,3.90
2018-10-21T14:51:02.947Z,3.53
2018-10-21T14:53:31.317Z,3.87
2018-10-21T14:55:59.793Z,4.07
2018-10-21T14:58:28.152Z,4.23
2018-10-21T15:00:56.533Z,3.80
2018-10-21T15:03:24.974Z,4.47
2018-10-21T15:05:53.355Z,4.30
2018-10-21T15:08:21.902Z,4.20
2018-10-21T15:10:50.274Z,3.63
2018-10-21T15:13:18.708Z,3.90
2018-10-21T15:15:47.339Z,4.27
2018-10-21T15:18:15.699Z,4.57
2018-10-21T15:20:43.971Z,3.80
2018-10-21T15:23:12.316Z,3.87
2018-10-21T15:25:40.733Z,4.07
2018-10-21T15:28:09.093Z,3.53
2018-10-21T15:30:37.532Z,4.20
2018-10-21T15:33:05.846Z,4.50
2018-10-21T15:35:34.254Z,4.40
2018-10-21T15:38:02.666Z,4.20
2018-10-21T15:40:31.009Z,3.90
2018-10-21T15:42:59.400Z,3.63
2018-10-21T15:45:27.967Z,3.70
2018-10-21T15:47:56.317Z,4.23
2018-10-21T15:50:24.777Z,3.60
2018-10-21T15:52:53.211Z,3.63
2018-10-21T15:55:21.667Z,4.00
2018-10-21T15:57:50.051Z,4.00
2018-10-21T16:00:18.461Z,4.70
2018-10-21T16:02:46.896Z,4.33
2018-10-21T16:05:15.364Z,5.53
2018-10-21T16:07:43.733Z,5.30
2018-10-21T16:10:12.152Z,4.03
2018-10-21T16:12:40.527Z,5.23
2018-10-21T16:15:11.179Z,4.67
2018-10-21T16:17:39.646Z,4.73
2018-10-21T16:20:08.200Z,4.90
2018-10-21T16:22:38.212Z,4.93
2018-10-21T16:25:08.584Z,3.90
2018-10-21T16:27:36.900Z,4.97
2018-10-21T16:30:06.972Z,4.83
2018-10-21T16:32:35.422Z,4.83
2018-10-21T16:35:04.152Z,4.40
2018-10-21T16:37:32.577Z,4.90
2018-10-21T16:40:00.900Z,4.90
2018-10-21T16:42:29.221Z,5.40
2018-10-21T16:44:57.849Z,4.87
2018-10-21T16:47:26.251Z,5.30
2018-10-21T16:49:54.737Z,6.17
2018-10-21T16:52:23.109Z,5.60
2018-10-21T16:54:51.719Z,5.90
2018-10-21T16:57:20.077Z,5.27
2018-10-21T16:59:48.432Z,5.57
2018-10-21T17:02:16.750Z,5.33
2018-10-21T17:04:45.399Z,5.70
2018-10-21T17:07:14.265Z,5.27
2018-10-21T17:09:42.947Z,6.77
2018-10-21T17:12:10.969Z,5.13
2018-10-21T17:14:39.589Z,5.63
2018-10-21T17:17:08.108Z,6.27
2018-10-21T17:19:36.452Z,5.40
2018-10-21T17:22:04.964Z,6.43
2018-10-21T17:24:33.277Z,6.33
2018-10-21T17:27:01.757Z,5.60
2018-10-21T17:29:30.168Z,5.40
2018-10-21T17:31:58.655Z,6.00
2018-10-21T17:34:26.988Z,5.70
2018-10-21T17:36:55.466Z,5.90
2018-10-21T17:39:23.868Z,6.30
2018-10-21T17:41:52.355Z,5.90
2018-10-21T17:44:20.780Z,6.20
2018-10-21T17:46:49.150Z,5.57
2018-10-21T17:49:17.497Z,6.80
2018-10-21T17:51:45.879Z,6.07
2018-10-21T17:54:14.284Z,7.07
2018-10-21T17:56:48.049Z,6.60
2018-10-21T17:59:16.369Z,5.93
2018-10-21T18:01:44.708Z,5.20
2018-10-21T18:04:13.070Z,5.87
2018-10-21T18:06:41.834Z,6.27
2018-10-21T18:09:11.792Z,6.80
2018-10-21T18:11:40.660Z,6.90
2018-10-21T18:14:09.118Z,7.17
2018-10-21T18:16:37.950Z,8.40
2018-10-21T18:19:07.545Z,7.70
2018-10-21T18:21:36.150Z,6.77
2018-10-21T18:24:04.653Z,7.57
2018-10-21T18:26:33.057Z,6.80
2018-10-21T18:29:01.481Z,7.63
2018-10-21T18:31:29.856Z,7.10
2018-10-21T18:33:58.160Z,6.47
2018-10-21T18:36:26.769Z,7.20
2018-10-21T18:38:55.129Z,6.93
2018-10-21T18:41:23.766Z,6.10
2018-10-21T18:43:52.198Z,7.77
2018-10-21T18:46:20.582Z,6.23
2018-10-21T18:48:48.951Z,6.53
2018-10-21T18:51:17.329Z,6.60
2018-10-21T18:53:45.850Z,7.07
2018-10-21T18:56:14.207Z,6.20
2018-10-21T18:58:42.795Z,6.20
2018-10-21T19:01:11.352Z,6.43
2018-10-21T19:03:39.618Z,6.73
2018-10-21T19:06:08.056Z,6.40
2018-10-21T19:08:36.421Z,6.50
2018-10-21T19:11:05.781Z,5.63
2018-10-21T19:13:34.484Z,6.83
2018-10-21T19:16:02.973Z,6.50
2018-10-21T19:18:31.426Z,6.00
2018-10-21T19:20:59.869Z,6.93
2018-10-21T19:23:28.327Z,6.47
2018-10-21T19:25:56.681Z,7.10
2018-10-21T19:28:25.506Z,6.53
2018-10-21T19:30:54.195Z,6.60
2018-10-21T19:33:22.687Z,7.00
2018-10-21T19:35:51.077Z,6.87
2018-10-21T19:38:19.463Z,6.80
2018-10-21T19:40:47.813Z,6.40
2018-10-21T19:43:16.258Z,6.60
2018-10-21T19:45:44.623Z,8.27
2018-10-21T19:48:13.031Z,7.17
2018-10-21T19:50:41.439Z,7.07
2018-10-21T19:53:09.789Z,7.30
2018-10-21T19:55:38.183Z,6.40
2018-10-21T19:58:06.513Z,6.50
2018-10-21T20:00:35.983Z,8.40
2018-10-21T20:03:04.683Z,7.63
2018-10-21T20:05:33.014Z,7.00
2018-10-21T20:08:01.446Z,7.60
2018-10-21T20:10:29.780Z,6.60
2018-10-21T20:12:58.252Z,7.47
2018-10-21T20:15:26.617Z,7.10
2018-10-21T20:17:55.014Z,7.30
2018-10-21T20:20:23.315Z,7.80
2018-10-21T20:22:51.644Z,7.03
2018-10-21T20:25:20.228Z,7.17
2018-10-21T20:27:48.588Z,7.53
2018-10-21T20:30:17.940Z,8.10
2018-10-21T20:32:46.403Z,8.03
2018-10-21T20:35:14.813Z,8.23
2018-10-21T20:37:43.241Z,7.50
2018-10-21T20:40:11.984Z,8.90
2018-10-21T20:42:40.389Z,8.37
2018-10-21T20:45:10.332Z,7.83
2018-10-21T20:47:38.758Z,8.00
2018-10-21T20:50:07.130Z,8.70
2018-10-21T20:52:35.527Z,7.73
2018-10-21T20:55:03.877Z,8.07
2018-10-21T20:57:32.256Z,7.60
2018-10-21T21:00:00.651Z,8.13
2018-10-21T21:02:29.045Z,9.20
2018-10-21T21:04:57.450Z,7.80
2018-10-21T21:07:25.875Z,8.17
2018-10-21T21:09:54.323Z,7.80
2018-10-21T21:12:22.684Z,8.30
2018-10-21T21:14:51.060Z,7.37
2018-10-21T21:17:19.421Z,7.33
2018-10-21T21:19:48.153Z,7.63
2018-10-21T21:22:16.714Z,7.20
2018-10-21T21:24:44.959Z,7.10
2018-10-21T21:27:13.346Z,8.50
2018-10-21T21:29:41.808Z,7.60
2018-10-21T21:32:10.224Z,8.30
2018-10-21T21:34:38.631Z,7.23
2018-10-21T21:37:07.037Z,8.07
2018-10-21T21:39:35.476Z,7.20
2018-10-21T21:42:03.904Z,7.90
2018-10-21T21:44:32.245Z,7.60
2018-10-21T21:47:00.625Z,7.33
2018-10-21T21:49:29.070Z,8.83
2018-10-21T21:51:57.486Z,7.13
2018-10-21T21:54:25.853Z,7.50
2018-10-21T21:56:54.223Z,7.53
2018-10-21T21:59:22.673Z,8.03
2018-10-21T22:01:51.166Z,7.40
2018-10-21T22:04:19.602Z,8.57
2018-10-21T22:06:47.913Z,8.30
2018-10-21T22:09:16.385Z,7.60
2018-10-21T22:11:44.775Z,7.50
2018-10-21T22:14:13.193Z,7.50
2018-10-21T22:16:41.566Z,8.10
2018-10-21T22:19:10.003Z,7.80
2018-10-21T22:21:38.844Z,7.40
2018-10-21T22:24:08.436Z,7.50
2018-10-21T22:26:36.921Z,7.80
2018-10-21T22:29:05.461Z,7.60
2018-10-21T22:31:33.835Z,8.97
2018-10-21T22:34:02.286Z,7.73
2018-10-21T22:36:30.643Z,8.17
2018-10-21T22:38:59.031Z,7.80
2018-10-21T22:41:27.379Z,7.67
2018-10-21T22:43:55.767Z,7.80
2018-10-21T22:46:24.229Z,8.07
2018-10-21T22:48:52.663Z,8.47
2018-10-21T22:51:21.042Z,8.37
2018-10-21T22:53:49.478Z,7.87
2018-10-21T22:56:17.865Z,8.73
2018-10-21T22:58:46.255Z,7.80
2018-10-21T23:01:14.631Z,8.47
2018-10-21T23:03:42.955Z,7.83
2018-10-21T23:06:11.444Z,8.47
2018-10-21T23:08:39.706Z,8.23
2018-10-21T23:11:08.086Z,8.50
2018-10-21T23:13:36.407Z,8.80
2018-10-21T23:16:05.462Z,8.80
2018-10-21T23:18:34.037Z,8.17
2018-10-21T23:21:02.553Z,8.63
2018-10-21T23:23:31.264Z,8.20
2018-10-21T23:25:59.641Z,6.90
2018-10-21T23:28:28.079Z,8.33
2018-10-21T23:30:56.410Z,8.03
2018-10-21T23:33:25.023Z,8.97
2018-10-21T23:35:53.363Z,8.53
2018-10-21T23:38:21.697Z,8.63
2018-10-21T23:40:50.057Z,9.70
2018-10-21T23:43:18.491Z,8.33
2018-10-21T23:45:46.885Z,9.10
2018-10-21T23:48:15.297Z,8.77
2018-10-21T23:50:43.667Z,8.57
2018-10-21T23:53:12.098Z,7.87
2018-10-21T23:55:40.477Z,8.70
2018-10-21T23:58:08.893Z,9.30
